Time;durP1;ratioP1;P1;durP2;ratioP2;P2;SDS_P1;SDS_P2;PMS_P1;PMS_P2;Temp;Humidity;BMP_temperature;BMP_pressure;BME280_temperature;BME280_humidity;BME280_pressure;Samples;Min_cycle;Max_cycle;Signal;HPM_P1;HPM_P2
2023/11/03 00:01:11;;;;;;;9.63;1.60;;;9.20;99.90;;;;;;5026049;28;39553;-78
2023/11/03 00:03:37;;;;;;;7.33;1.50;;;9.20;99.90;;;;;;5020744;28;38229;-77
2023/11/03 00:06:04;;;;;;;6.73;1.77;;;9.30;99.90;;;;;;5025837;28;36546;-77
2023/11/03 00:08:33;;;;;;;8.17;2.30;;;9.30;99.90;;;;;;5028575;28;37154;-77
2023/11/03 00:11:04;;;;;;;11.90;2.30;;;9.30;99.90;;;;;;5034665;28;39552;-76
2023/11/03 00:13:31;;;;;;;10.87;2.80;;;9.30;99.90;;;;;;5041069;28;47135;-78
2023/11/03 00:15:58;;;;;;;13.80;2.30;;;9.30;99.90;;;;;;5031211;28;36514;-78
2023/11/03 00:18:24;;;;;;;14.23;2.50;;;9.30;99.90;;;;;;5027337;28;36134;-79
2023/11/03 00:20:50;;;;;;;12.53;2.13;;;9.30;99.90;;;;;;5027000;28;37937;-76
2023/11/03 00:23:17;;;;;;;14.23;2.27;;;9.30;99.90;;;;;;5027066;28;38147;-76
2023/11/03 00:25:47;;;;;;;15.00;2.77;;;9.30;99.90;;;;;;5030055;28;37994;-75
2023/11/03 00:28:13;;;;;;;17.37;2.17;;;9.30;99.90;;;;;;5018141;28;34677;-76
2023/11/03 00:30:39;;;;;;;11.87;2.27;;;9.30;99.90;;;;;;5017074;28;37470;-76
2023/11/03 00:33:05;;;;;;;11.17;2.27;;;9.30;99.90;;;;;;5017516;28;37227;-75
2023/11/03 00:35:34;;;;;;;9.00;2.20;;;9.30;99.90;;;;;;5028094;28;36603;-77
2023/11/03 00:38:00;;;;;;;10.37;2.13;;;9.30;99.90;;;;;;5023098;28;36917;-76
2023/11/03 00:40:26;;;;;;;10.63;2.23;;;9.30;99.90;;;;;;5027117;28;38732;-76
2023/11/03 00:42:58;;;;;;;8.47;1.63;;;9.30;99.90;;;;;;5018194;28;38174;-76
2023/11/03 00:45:24;;;;;;;12.65;2.40;;;9.30;99.90;;;;;;5036271;28;36750;-76
2023/11/03 00:47:51;;;;;;;12.47;2.20;;;9.30;99.90;;;;;;5038449;28;36199;-77
2023/11/03 00:50:17;;;;;;;10.53;3.03;;;9.30;99.90;;;;;;5032249;28;39871;-76
2023/11/03 00:52:43;;;;;;;8.27;2.33;;;9.30;99.90;;;;;;5031066;28;37807;-76
2023/11/03 00:55:09;;;;;;;7.63;2.13;;;9.30;99.90;;;;;;5026078;28;36852;-77
2023/11/03 00:57:37;;;;;;;7.50;2.50;;;9.30;99.90;;;;;;5024238;28;36382;-76
2023/11/03 01:00:05;;;;;;;9.47;2.23;;;9.30;99.90;;;;;;5019382;28;39662;-77
2023/11/03 01:02:31;;;;;;;10.10;2.13;;;9.30;99.90;;;;;;5039105;28;37477;-77
2023/11/03 01:04:57;;;;;;;7.63;2.00;;;9.30;99.90;;;;;;5030307;28;38807;-74
2023/11/03 01:07:23;;;;;;;11.00;2.27;;;9.30;99.90;;;;;;5028399;28;35949;-77
2023/11/03 01:09:49;;;;;;;11.70;2.23;;;9.40;99.90;;;;;;5025177;28;38893;-76
2023/11/03 01:12:16;;;;;;;7.37;1.90;;;9.40;99.90;;;;;;5025250;28;39278;-78
2023/11/03 01:14:42;;;;;;;9.00;1.97;;;9.40;99.90;;;;;;5024574;28;36316;-76
2023/11/03 01:17:08;;;;;;;12.07;1.87;;;9.40;99.90;;;;;;5033250;28;38861;-76
2023/11/03 01:19:34;;;;;;;11.93;2.30;;;9.40;99.90;;;;;;5020660;28;38960;-76
2023/11/03 01:22:00;;;;;;;9.50;2.90;;;9.40;99.90;;;;;;5030053;28;38234;-76
2023/11/03 01:24:26;;;;;;;8.87;2.37;;;9.40;99.90;;;;;;5012813;28;47526;-78
2023/11/03 01:26:52;;;;;;;10.63;2.00;;;9.40;99.90;;;;;;5021522;28;36108;-76
2023/11/03 01:29:19;;;;;;;9.50;2.10;;;9.50;99.90;;;;;;5012252;28;38694;-76
2023/11/03 01:31:45;;;;;;;9.43;2.33;;;9.50;99.90;;;;;;5024886;28;36629;-76
2023/11/03 01:34:11;;;;;;;16.83;2.27;;;9.50;99.90;;;;;;5027460;28;36859;-77
2023/11/03 01:36:38;;;;;;;14.23;2.33;;;9.50;99.90;;;;;;5020851;28;36734;-77
2023/11/03 01:39:05;;;;;;;15.57;2.47;;;9.50;99.90;;;;;;5041552;28;38531;-77
2023/11/03 01:41:32;;;;;;;7.83;1.97;;;9.50;99.90;;;;;;5027480;28;37329;-77
2023/11/03 01:44:06;;;;;;;13.27;3.03;;;9.50;99.90;;;;;;5022785;28;39196;-76
2023/11/03 01:46:36;;;;;;;9.93;1.90;;;9.50;99.90;;;;;;5038831;28;47298;-76
2023/11/03 01:49:08;;;;;;;11.27;1.83;;;9.50;99.90;;;;;;5024719;28;39162;-77
2023/11/03 01:51:35;;;;;;;7.57;1.67;;;9.50;99.90;;;;;;5025969;28;38271;-77
2023/11/03 01:54:03;;;;;;;13.43;2.30;;;9.50;99.90;;;;;;5018190;28;37944;-75
2023/11/03 01:56:31;;;;;;;13.23;2.00;;;9.50;99.90;;;;;;5020859;28;49135;-74
2023/11/03 01:59:02;;;;;;;9.63;2.07;;;9.60;99.90;;;;;;5022383;28;38579;-75
2023/11/03 02:04:05;;;;;;;12.30;2.07;;;9.60;99.90;;;;;;4995697;28;20050;-78
2023/11/03 02:06:31;;;;;;;10.33;2.60;;;9.60;99.90;;;;;;5011023;28;37155;-78
2023/11/03 02:08:58;;;;;;;15.07;2.40;;;9.60;99.90;;;;;;5011203;28;38974;-78
2023/11/03 02:11:27;;;;;;;16.67;2.73;;;9.60;99.90;;;;;;4996868;28;37333;-78
2023/11/03 02:13:53;;;;;;;17.10;3.10;;;9.70;99.90;;;;;;5012245;28;36535;-78
2023/11/03 02:16:19;;;;;;;20.23;3.07;;;9.70;99.90;;;;;;5000037;28;36009;-79
2023/11/03 02:18:45;;;;;;;16.77;2.20;;;9.70;99.90;;;;;;4997397;28;39085;-78
2023/11/03 02:21:13;;;;;;;19.23;2.63;;;9.70;99.90;;;;;;4996284;28;37395;-78
2023/11/03 02:23:40;;;;;;;15.87;2.33;;;9.80;99.90;;;;;;4997902;28;41395;-78
2023/11/03 02:26:06;;;;;;;15.27;2.30;;;9.80;99.90;;;;;;4997433;28;36866;-77
2023/11/03 02:28:32;;;;;;;19.70;2.23;;;9.70;99.90;;;;;;4996674;28;37336;-78
2023/11/03 02:30:58;;;;;;;28.43;4.17;;;9.60;99.90;;;;;;5016387;28;38490;-78
2023/11/03 02:33:24;;;;;;;16.90;1.67;;;9.60;99.90;;;;;;5015442;28;37741;-79
2023/11/03 02:35:50;;;;;;;23.10;2.73;;;9.50;99.90;;;;;;5013682;28;36163;-79
2023/11/03 02:38:16;;;;;;;9.40;1.97;;;9.50;99.90;;;;;;5006397;28;38943;-78
2023/11/03 02:40:47;;;;;;;23.27;3.43;;;9.50;99.90;;;;;;5013401;28;38470;-78
2023/11/03 02:43:13;;;;;;;25.77;2.53;;;9.50;99.90;;;;;;5010399;28;36719;-78
2023/11/03 02:45:39;;;;;;;21.57;2.90;;;9.50;99.90;;;;;;4993894;28;38222;-81
2023/11/03 02:48:06;;;;;;;13.63;1.90;;;9.50;99.90;;;;;;5010138;28;40505;-79
2023/11/03 02:50:32;;;;;;;20.10;1.83;;;9.40;99.90;;;;;;4988297;28;37527;-78
2023/11/03 02:52:59;;;;;;;18.87;2.00;;;9.40;99.90;;;;;;4989706;28;36873;-78
2023/11/03 02:55:25;;;;;;;21.33;2.60;;;9.40;99.90;;;;;;5001435;28;35878;-78
2023/11/03 02:57:51;;;;;;;20.57;2.60;;;9.40;99.90;;;;;;5006624;28;37857;-78
2023/11/03 03:00:18;;;;;;;23.47;2.80;;;9.50;99.90;;;;;;5016146;28;38522;-79
2023/11/03 03:02:44;;;;;;;16.97;2.80;;;9.50;99.90;;;;;;4996586;28;36640;-78
2023/11/03 03:05:10;;;;;;;31.07;3.33;;;9.40;99.90;;;;;;4993801;28;36905;-80
2023/11/03 03:07:37;;;;;;;23.47;2.53;;;9.50;99.90;;;;;;5019909;28;37665;-78
2023/11/03 03:10:04;;;;;;;30.87;3.17;;;9.50;99.90;;;;;;5022592;28;37949;-78
2023/11/03 03:12:30;;;;;;;23.03;2.63;;;9.50;99.90;;;;;;5022240;28;37963;-78
2023/11/03 03:14:56;;;;;;;25.10;3.27;;;9.50;99.90;;;;;;5018823;28;35158;-79
2023/11/03 03:17:22;;;;;;;17.70;2.53;;;9.50;99.90;;;;;;4998631;28;38862;-81
2023/11/03 03:19:48;;;;;;;27.60;3.67;;;9.50;99.90;;;;;;5011881;28;38659;-79
2023/11/03 03:22:14;;;;;;;23.40;3.17;;;9.60;99.90;;;;;;4999057;28;36695;-78
2023/11/03 03:24:41;;;;;;;22.57;3.03;;;9.60;99.90;;;;;;4992115;28;35897;-78
2023/11/03 03:27:07;;;;;;;24.70;3.47;;;9.60;99.90;;;;;;4998949;28;38686;-80
2023/11/03 03:29:33;;;;;;;29.67;3.20;;;9.60;99.90;;;;;;4997485;28;37648;-78
2023/11/03 03:32:32;;;;;;;28.03;3.63;;;9.60;99.90;;;;;;5008951;28;36232;-78
2023/11/03 03:34:58;;;;;;;19.83;3.33;;;9.60;99.90;;;;;;4920743;28;47666;-78
2023/11/03 03:37:25;;;;;;;22.83;3.20;;;9.60;99.90;;;;;;4999871;28;37841;-78
2023/11/03 03:39:51;;;;;;;26.63;2.87;;;9.60;99.90;;;;;;4995353;28;37967;-80
2023/11/03 03:42:19;;;;;;;21.17;3.03;;;9.60;99.90;;;;;;5001855;28;37382;-78
2023/11/03 03:44:46;;;;;;;31.17;3.57;;;9.60;99.90;;;;;;5006470;28;37909;-78
2023/11/03 03:47:12;;;;;;;27.87;3.50;;;9.60;99.90;;;;;;5010410;28;37824;-78
2023/11/03 03:49:38;;;;;;;21.40;2.90;;;9.70;99.90;;;;;;4996108;28;39424;-77
2023/11/03 03:52:06;;;;;;;23.10;3.20;;;9.70;99.90;;;;;;4987852;28;36690;-79
2023/11/03 03:54:33;;;;;;;21.00;3.90;;;9.70;99.90;;;;;;5010670;28;35959;-78
2023/11/03 03:57:00;;;;;;;24.23;3.20;;;9.70;99.90;;;;;;4994159;28;37712;-78
2023/11/03 03:59:26;;;;;;;29.40;3.50;;;9.80;99.90;;;;;;4997404;28;37024;-78
2023/11/03 04:01:52;;;;;;;21.27;2.87;;;9.80;99.90;;;;;;5016625;28;38596;-78
2023/11/03 04:04:18;;;;;;;22.03;2.43;;;9.80;99.90;;;;;;5007220;28;36985;-77
2023/11/03 04:06:45;;;;;;;29.07;3.97;;;9.90;99.90;;;;;;5008795;28;38579;-78
2023/11/03 04:09:11;;;;;;;29.67;3.50;;;9.90;99.90;;;;;;5005821;28;39730;-78
2023/11/03 04:11:37;;;;;;;25.27;4.17;;;9.90;99.90;;;;;;4994926;28;37389;-78
2023/11/03 04:14:03;;;;;;;19.90;3.20;;;9.90;99.90;;;;;;5008404;28;37436;-78
2023/11/03 04:16:33;;;;;;;15.50;2.83;;;9.90;99.90;;;;;;4996428;28;39302;-78
2023/11/03 04:19:00;;;;;;;24.97;4.17;;;9.90;99.90;;;;;;5004333;28;39280;-78
2023/11/03 04:21:26;;;;;;;25.10;3.10;;;9.90;99.90;;;;;;4987443;28;37124;-78
2023/11/03 04:23:52;;;;;;;24.83;3.20;;;9.90;99.90;;;;;;5004437;28;37044;-78
2023/11/03 04:26:18;;;;;;;19.40;3.17;;;9.90;99.90;;;;;;4989888;28;38720;-78
2023/11/03 04:28:44;;;;;;;25.50;3.00;;;9.90;99.90;;;;;;5001516;28;38113;-78
2023/11/03 04:31:10;;;;;;;25.90;3.23;;;9.90;99.90;;;;;;5002235;28;38199;-78
2023/11/03 04:33:36;;;;;;;21.67;2.53;;;9.80;99.90;;;;;;4990310;28;36426;-78
2023/11/03 04:36:04;;;;;;;27.90;3.40;;;9.80;99.90;;;;;;5006860;28;39509;-78
2023/11/03 04:38:30;;;;;;;18.83;2.00;;;9.80;99.90;;;;;;5007751;28;39109;-80
2023/11/03 04:40:56;;;;;;;22.90;3.07;;;9.80;99.90;;;;;;5007037;28;37646;-77
2023/11/03 04:43:23;;;;;;;22.57;3.33;;;9.70;99.90;;;;;;4989190;28;37107;-77
2023/11/03 04:45:50;;;;;;;15.87;2.73;;;9.80;99.90;;;;;;5009096;28;40170;-78
2023/11/03 04:48:16;;;;;;;26.23;2.93;;;9.80;99.90;;;;;;4989736;28;37060;-79
2023/11/03 04:50:42;;;;;;;28.27;3.10;;;9.80;99.90;;;;;;4989120;28;36373;-78
2023/11/03 04:53:08;;;;;;;23.23;2.83;;;9.80;99.90;;;;;;4989307;28;37034;-78
2023/11/03 04:55:34;;;;;;;24.17;2.27;;;9.80;99.90;;;;;;5010407;28;39016;-79
2023/11/03 04:58:00;;;;;;;18.53;2.70;;;9.70;99.90;;;;;;4995442;28;37731;-78
2023/11/03 05:00:30;;;;;;;16.17;2.03;;;9.80;99.90;;;;;;4982558;28;36548;-78
2023/11/03 05:02:56;;;;;;;18.30;2.80;;;9.80;99.90;;;;;;4981679;28;36287;-78
2023/11/03 05:05:22;;;;;;;20.47;2.40;;;9.80;99.90;;;;;;5007533;28;38632;-79
2023/11/03 05:07:48;;;;;;;17.53;2.63;;;9.80;99.90;;;;;;4999584;28;37713;-79
2023/11/03 05:10:14;;;;;;;12.07;1.90;;;9.80;99.90;;;;;;5016628;28;36687;-78
2023/11/03 05:12:40;;;;;;;13.90;2.13;;;9.70;99.90;;;;;;5009984;28;35947;-79
2023/11/03 05:15:09;;;;;;;15.80;2.37;;;9.80;99.90;;;;;;5024113;28;40083;-79
2023/11/03 05:17:37;;;;;;;15.07;2.20;;;9.70;99.90;;;;;;5000195;28;38018;-80
2023/11/03 05:20:07;;;;;;;12.53;2.33;;;9.70;99.90;;;;;;5008867;28;37443;-78
2023/11/03 05:22:33;;;;;;;11.73;2.93;;;9.60;99.90;;;;;;5003967;28;47103;-78
2023/11/03 05:24:59;;;;;;;16.07;2.70;;;9.70;99.90;;;;;;5017034;28;38882;-78
2023/11/03 05:27:25;;;;;;;19.70;2.80;;;9.60;99.90;;;;;;4995106;28;37340;-77
2023/11/03 05:29:51;;;;;;;18.17;2.67;;;9.60;99.90;;;;;;5012213;28;37788;-77
2023/11/03 05:32:17;;;;;;;18.77;2.57;;;9.60;99.90;;;;;;4992850;28;36294;-78
2023/11/03 05:34:47;;;;;;;24.30;3.20;;;9.60;99.90;;;;;;4987009;28;37958;-77
2023/11/03 05:37:16;;;;;;;18.43;2.83;;;9.70;99.90;;;;;;4984204;28;41926;-78
2023/11/03 05:39:42;;;;;;;14.10;3.67;;;9.70;99.90;;;;;;4984708;28;38454;-78
2023/11/03 05:42:09;;;;;;;15.30;3.63;;;9.60;99.90;;;;;;5004749;28;35865;-78
2023/11/03 05:44:35;;;;;;;23.70;3.77;;;9.60;99.90;;;;;;4986006;28;37943;-78
2023/11/03 05:47:01;;;;;;;24.40;3.90;;;9.60;99.90;;;;;;5003109;28;36598;-78
2023/11/03 05:49:28;;;;;;;17.20;3.13;;;9.60;99.90;;;;;;4990316;28;47574;-77
2023/11/03 05:51:54;;;;;;;27.17;3.93;;;9.60;99.90;;;;;;5005671;28;36096;-77
2023/11/03 05:54:20;;;;;;;22.00;3.30;;;9.60;99.90;;;;;;4985929;28;37937;-77
2023/11/03 05:56:46;;;;;;;20.53;3.77;;;9.60;99.90;;;;;;5002029;28;38706;-76
2023/11/03 05:59:12;;;;;;;21.07;3.90;;;9.60;99.90;;;;;;4986773;28;36251;-76
2023/11/03 06:01:39;;;;;;;23.30;3.80;;;9.60;99.90;;;;;;4989141;28;39217;-77
2023/11/03 06:04:07;;;;;;;19.87;3.73;;;9.60;99.90;;;;;;5004474;28;39154;-85
2023/11/03 06:06:33;;;;;;;18.17;3.67;;;9.60;99.90;;;;;;5016297;28;37696;-78
2023/11/03 06:08:59;;;;;;;18.83;3.70;;;9.60;99.90;;;;;;5011742;28;38356;-79
2023/11/03 06:11:25;;;;;;;23.20;3.57;;;9.60;99.90;;;;;;5008114;28;38560;-77
2023/11/03 06:13:52;;;;;;;25.97;4.13;;;9.60;99.90;;;;;;5007735;28;38752;-77
2023/11/03 06:16:21;;;;;;;20.17;4.37;;;9.70;99.90;;;;;;5004120;28;38227;-80
2023/11/03 06:18:48;;;;;;;25.60;4.70;;;9.70;99.90;;;;;;4986792;28;36813;-77
2023/11/03 06:21:14;;;;;;;20.57;3.57;;;9.70;99.90;;;;;;5000527;28;37235;-77
2023/11/03 06:23:40;;;;;;;23.83;3.77;;;9.60;99.90;;;;;;4984537;28;37454;-76
2023/11/03 06:26:06;;;;;;;22.73;4.67;;;9.60;99.90;;;;;;5012363;28;38280;-77
2023/11/03 06:28:33;;;;;;;26.13;4.90;;;9.60;99.90;;;;;;5006695;28;37430;-77
2023/11/03 06:30:59;;;;;;;19.00;4.07;;;9.60;99.90;;;;;;4989118;28;35846;-77
2023/11/03 06:33:25;;;;;;;25.00;4.83;;;9.60;99.90;;;;;;4987916;28;37658;-76
2023/11/03 06:35:51;;;;;;;21.53;4.53;;;9.60;99.90;;;;;;4986603;28;37157;-76
2023/11/03 06:38:18;;;;;;;22.40;3.97;;;9.50;99.90;;;;;;5012239;28;37216;-76
2023/11/03 06:40:44;;;;;;;24.20;4.63;;;9.50;99.90;;;;;;5010656;28;38438;-77
2023/11/03 06:43:10;;;;;;;19.10;3.63;;;9.50;99.90;;;;;;4995399;28;38330;-77
2023/11/03 06:45:36;;;;;;;20.67;3.50;;;9.50;99.90;;;;;;5012152;28;38356;-77
2023/11/03 06:48:02;;;;;;;33.97;5.30;;;9.50;99.90;;;;;;5015062;28;38224;-76
2023/11/03 06:50:28;;;;;;;22.43;4.53;;;9.50;99.90;;;;;;5001107;28;35662;-77
2023/11/03 06:52:56;;;;;;;29.13;5.27;;;9.50;99.90;;;;;;4987260;28;38295;-78
2023/11/03 06:55:22;;;;;;;17.00;3.20;;;9.50;99.90;;;;;;5002135;28;39756;-77
2023/11/03 06:57:48;;;;;;;23.50;2.87;;;9.50;99.90;;;;;;5013538;28;36948;-78
2023/11/03 07:00:14;;;;;;;26.47;3.67;;;9.50;99.90;;;;;;4993406;28;37185;-78
2023/11/03 07:02:41;;;;;;;34.63;4.17;;;9.60;99.90;;;;;;4993090;28;38434;-78
2023/11/03 07:05:08;;;;;;;23.73;3.40;;;9.60;99.90;;;;;;5017048;28;38436;-77
2023/11/03 07:07:36;;;;;;;20.57;3.00;;;9.60;99.90;;;;;;5018703;28;37022;-75
2023/11/03 07:10:02;;;;;;;24.87;3.43;;;9.60;99.90;;;;;;4990276;28;37971;-77
2023/11/03 07:12:30;;;;;;;18.73;3.23;;;9.60;99.90;;;;;;4992432;28;37403;-75
2023/11/03 07:14:56;;;;;;;27.93;4.10;;;9.70;99.90;;;;;;4994571;28;37520;-77
2023/11/03 07:17:22;;;;;;;21.93;3.37;;;9.60;99.90;;;;;;5013610;28;38044;-75
2023/11/03 07:19:48;;;;;;;20.77;2.90;;;9.70;99.90;;;;;;4990084;28;36219;-76
2023/11/03 07:22:18;;;;;;;29.67;3.97;;;9.70;99.90;;;;;;5008447;28;38587;-76
2023/11/03 07:24:44;;;;;;;20.13;3.00;;;9.70;99.90;;;;;;4996326;28;38723;-75
2023/11/03 07:27:11;;;;;;;24.20;3.37;;;9.70;99.90;;;;;;5012960;28;37695;-77
2023/11/03 07:29:37;;;;;;;27.03;2.93;;;9.70;99.90;;;;;;5012138;28;38259;-77
2023/11/03 07:32:04;;;;;;;34.47;3.70;;;9.80;99.90;;;;;;5007508;28;39832;-77
2023/11/03 07:34:30;;;;;;;25.90;3.50;;;9.80;99.90;;;;;;5001358;28;37349;-78
2023/11/03 07:36:57;;;;;;;19.90;3.77;;;9.80;99.90;;;;;;5023003;28;37785;-76
2023/11/03 07:39:23;;;;;;;27.60;3.43;;;9.80;99.90;;;;;;5013836;28;35955;-76
2023/11/03 07:41:49;;;;;;;20.40;3.23;;;9.90;99.90;;;;;;5015910;28;39810;-76
2023/11/03 07:44:17;;;;;;;18.87;3.23;;;9.90;99.90;;;;;;4990564;28;37054;-84
2023/11/03 07:46:43;;;;;;;20.97;3.80;;;9.90;99.90;;;;;;4995255;28;37606;-76
2023/11/03 07:49:09;;;;;;;22.33;3.00;;;9.90;99.90;;;;;;5000874;28;36154;-77
2023/11/03 07:51:35;;;;;;;31.53;4.40;;;9.90;99.90;;;;;;5019482;28;38882;-76
2023/11/03 07:54:02;;;;;;;26.57;4.20;;;10.00;99.90;;;;;;5017482;28;39333;-76
2023/11/03 07:56:28;;;;;;;24.77;3.27;;;9.90;99.90;;;;;;5002603;28;38024;-76
2023/11/03 07:58:55;;;;;;;26.23;3.23;;;9.90;99.90;;;;;;5013678;28;36365;-76
2023/11/03 08:01:21;;;;;;;20.33;3.00;;;10.00;99.90;;;;;;5008008;28;39033;-76
2023/11/03 08:03:47;;;;;;;19.43;3.00;;;10.00;99.90;;;;;;4993356;28;37061;-76
2023/11/03 08:06:14;;;;;;;18.77;3.17;;;10.00;99.90;;;;;;5014872;28;37748;-76
2023/11/03 08:08:41;;;;;;;17.63;2.90;;;10.10;99.90;;;;;;5012712;28;38682;-77
2023/11/03 08:11:08;;;;;;;31.47;3.43;;;10.10;99.90;;;;;;5009375;28;37987;-78
2023/11/03 08:13:34;;;;;;;18.77;3.00;;;10.10;99.90;;;;;;4999626;28;37181;-78
2023/11/03 08:16:02;;;;;;;24.87;2.87;;;10.10;99.90;;;;;;5015778;28;38656;-78
2023/11/03 08:18:30;;;;;;;17.63;2.97;;;10.10;99.90;;;;;;4996491;28;46813;-77
2023/11/03 08:20:56;;;;;;;26.37;3.87;;;10.10;99.90;;;;;;5008644;28;36461;-77
2023/11/03 08:23:22;;;;;;;20.27;2.60;;;10.20;99.90;;;;;;5004801;28;38129;-78
2023/11/03 08:25:49;;;;;;;20.33;3.03;;;10.20;99.90;;;;;;5028585;28;36705;-77
2023/11/03 08:28:15;;;;;;;22.67;3.30;;;10.20;99.90;;;;;;5017021;28;37032;-77
2023/11/03 08:30:41;;;;;;;24.00;3.33;;;10.30;99.90;;;;;;5016679;28;37597;-78
2023/11/03 08:33:08;;;;;;;19.27;2.73;;;10.30;99.90;;;;;;5034058;28;38491;-78
2023/11/03 08:35:35;;;;;;;18.33;3.10;;;10.30;99.90;;;;;;5037273;28;37984;-78
2023/11/03 08:38:03;;;;;;;15.67;2.70;;;10.40;99.90;;;;;;5042959;28;37774;-77
2023/11/03 08:40:30;;;;;;;21.97;2.93;;;10.40;99.90;;;;;;5009499;28;47884;-77
2023/11/03 08:42:56;;;;;;;24.00;3.33;;;10.40;99.90;;;;;;4999893;28;38294;-78
2023/11/03 08:45:23;;;;;;;19.20;2.67;;;10.40;99.90;;;;;;5000976;28;37083;-77
2023/11/03 08:47:50;;;;;;;32.17;4.63;;;10.40;99.90;;;;;;5007829;28;36119;-78
2023/11/03 08:50:18;;;;;;;24.40;3.50;;;10.40;99.90;;;;;;4999888;28;38518;-78
2023/11/03 08:52:44;;;;;;;20.60;3.20;;;10.40;99.90;;;;;;5020595;28;37977;-79
2023/11/03 08:55:12;;;;;;;19.23;2.83;;;10.40;99.90;;;;;;5001152;28;36735;-77
2023/11/03 08:57:40;;;;;;;17.87;2.87;;;10.40;99.90;;;;;;5031047;28;38765;-78
2023/11/03 09:00:09;;;;;;;21.03;3.80;;;10.40;99.90;;;;;;5002363;28;38751;-78
2023/11/03 09:02:36;;;;;;;25.23;3.23;;;10.40;99.90;;;;;;5018569;28;36422;-79
2023/11/03 09:05:04;;;;;;;18.33;3.13;;;10.40;99.90;;;;;;5019887;28;37952;-78
2023/11/03 09:07:31;;;;;;;19.40;3.73;;;10.40;99.90;;;;;;5001992;28;47566;-78
2023/11/03 09:09:58;;;;;;;17.27;2.60;;;10.40;99.90;;;;;;5010860;28;38119;-79
2023/11/03 09:12:24;;;;;;;17.90;2.93;;;10.30;99.90;;;;;;5028373;28;38592;-78
2023/11/03 09:14:51;;;;;;;14.70;3.23;;;10.30;99.90;;;;;;5019739;28;38209;-78
2023/11/03 09:17:19;;;;;;;19.63;3.10;;;10.30;99.90;;;;;;5008535;28;36149;-80
2023/11/03 09:19:45;;;;;;;20.27;3.40;;;10.40;99.90;;;;;;5012123;28;39547;-79
2023/11/03 09:22:11;;;;;;;24.03;3.00;;;10.40;99.90;;;;;;5017102;28;39134;-78
2023/11/03 09:24:38;;;;;;;28.07;3.97;;;10.40;99.90;;;;;;5012229;28;36436;-79
2023/11/03 09:27:05;;;;;;;26.97;3.63;;;10.50;99.90;;;;;;5028140;28;37670;-79
2023/11/03 09:29:31;;;;;;;22.40;2.83;;;10.50;99.90;;;;;;5010536;28;38013;-78
2023/11/03 09:31:57;;;;;;;23.13;3.47;;;10.50;99.90;;;;;;5013071;28;37290;-78
2023/11/03 09:34:23;;;;;;;20.77;3.17;;;10.50;99.90;;;;;;5016313;28;37791;-79
2023/11/03 09:36:50;;;;;;;20.50;2.67;;;10.50;99.90;;;;;;5002148;28;36112;-77
2023/11/03 09:39:16;;;;;;;16.37;3.63;;;10.60;99.90;;;;;;5020534;28;37988;-77
2023/11/03 09:41:53;;;;;;;14.87;2.63;;;10.50;99.90;;;;;;5023980;28;38516;-79
2023/11/03 09:44:20;;;;;;;26.13;3.63;;;10.60;99.90;;;;;;5019895;28;37603;-79
2023/11/03 09:46:50;;;;;;;26.57;3.30;;;10.50;99.90;;;;;;4991388;28;36062;-78
2023/11/03 09:49:18;;;;;;;15.93;2.70;;;10.70;99.90;;;;;;4981165;28;40402;-78
2023/11/03 09:51:47;;;;;;;16.10;3.47;;;10.70;99.90;;;;;;4990974;28;38239;-79
2023/11/03 09:54:17;;;;;;;12.23;2.65;;;10.80;99.90;;;;;;5003489;28;37881;-78
2023/11/03 09:56:45;;;;;;;19.35;2.85;;;10.90;99.90;;;;;;4991265;28;36290;-78
2023/11/03 09:59:13;;;;;;;13.97;2.97;;;10.90;99.90;;;;;;5013452;28;40094;-79
2023/11/03 10:01:43;;;;;;;15.30;2.83;;;11.00;99.90;;;;;;5011652;28;38961;-82
2023/11/03 10:04:13;;;;;;;19.73;3.47;;;11.00;99.90;;;;;;5003081;28;36621;-78
2023/11/03 10:06:39;;;;;;;18.80;3.33;;;11.00;99.90;;;;;;4991743;28;37463;-78
2023/11/03 10:09:06;;;;;;;25.77;3.70;;;11.00;99.90;;;;;;5016528;28;37988;-78
2023/11/03 10:11:37;;;;;;;17.83;2.90;;;11.10;99.90;;;;;;4998797;28;40138;-78
2023/11/03 10:14:05;;;;;;;16.40;3.17;;;11.20;99.90;;;;;;4998309;28;36825;-78
2023/11/03 10:16:32;;;;;;;19.60;2.73;;;11.30;99.90;;;;;;4993938;28;36923;-78
2023/11/03 10:18:58;;;;;;;17.90;2.77;;;11.40;99.90;;;;;;5001448;28;38676;-78
2023/11/03 10:21:25;;;;;;;15.57;3.58;;;11.40;99.90;;;;;;5006347;28;39283;-77
2023/11/03 10:23:56;;;;;;;18.33;3.20;;;11.40;99.90;;;;;;5007657;28;37015;-78
2023/11/03 10:26:23;;;;;;;17.03;2.90;;;11.40;99.90;;;;;;4998083;28;36137;-78
2023/11/03 10:28:50;;;;;;;9.63;2.73;;;11.30;99.90;;;;;;4998098;28;38103;-78
2023/11/03 10:31:19;;;;;;;14.75;2.83;;;11.40;99.90;;;;;;4993139;28;37208;-79
2023/11/03 10:33:48;;;;;;;17.60;2.83;;;11.50;99.90;;;;;;5012970;28;36848;-78
2023/11/03 10:36:15;;;;;;;16.23;3.13;;;11.50;99.90;;;;;;5017862;28;37131;-78
2023/11/03 10:38:41;;;;;;;17.15;2.97;;;11.50;99.90;;;;;;5007020;28;37787;-78
2023/11/03 10:41:07;;;;;;;16.55;2.55;;;11.60;99.90;;;;;;4993097;28;37917;-79
2023/11/03 10:43:45;;;;;;;19.02;3.22;;;11.70;99.90;;;;;;5011790;28;38067;-79
2023/11/03 10:46:18;;;;;;;18.77;2.72;;;11.80;99.90;;;;;;4997411;28;36033;-78
2023/11/03 10:48:46;;;;;;;17.13;2.40;;;11.80;99.90;;;;;;5006782;28;38432;-78
2023/11/03 10:51:41;;;;;;;9.02;2.17;;;11.80;99.90;;;;;;4995172;28;37092;-78
2023/11/03 10:54:40;;;;;;;21.52;3.25;;;11.80;99.90;;;;;;4994158;28;37032;-78
2023/11/03 10:57:08;;;;;;;17.33;2.78;;;11.80;99.90;;;;;;4984801;28;36450;-78
2023/11/03 10:59:35;;;;;;;18.70;2.40;;;11.80;99.90;;;;;;5012671;28;39017;-78
2023/11/03 11:02:11;;;;;;;12.57;2.28;;;12.00;99.90;;;;;;4998661;28;38489;-80
2023/11/03 11:05:00;;;;;;;16.15;2.63;;;12.00;99.90;;;;;;5011123;28;37256;-78
2023/11/03 11:07:30;;;;;;;16.50;2.30;;;12.10;99.90;;;;;;4984808;28;36120;-79
2023/11/03 11:09:58;;;;;;;14.15;2.42;;;12.20;99.90;;;;;;4991438;28;37877;-78
2023/11/03 11:12:48;;;;;;;10.25;2.60;;;12.30;99.90;;;;;;4998038;28;37150;-78
2023/11/03 11:15:20;;;;;;;13.98;2.58;;;12.50;99.90;;;;;;5018210;28;38810;-79
2023/11/03 11:17:47;;;;;;;15.93;2.25;;;12.60;99.90;;;;;;5001265;28;36123;-79
2023/11/03 11:20:20;;;;;;;19.30;3.08;;;12.50;99.90;;;;;;5007764;28;37636;-77
2023/11/03 11:22:50;;;;;;;15.02;2.72;;;12.40;99.90;;;;;;5025773;28;38306;-79
2023/11/03 11:25:17;;;;;;;18.13;2.85;;;12.40;99.90;;;;;;5018621;28;37866;-78
2023/11/03 11:27:49;;;;;;;18.13;2.92;;;12.50;99.90;;;;;;4999096;28;35900;-78
2023/11/03 11:30:17;;;;;;;21.05;3.45;;;12.50;99.90;;;;;;5000832;28;39058;-78
2023/11/03 11:32:51;;;;;;;18.00;2.90;;;12.60;99.90;;;;;;5010798;28;37144;-78
2023/11/03 11:35:23;;;;;;;12.88;2.70;;;12.70;99.90;;;;;;5003515;28;36654;-79
2023/11/03 11:37:49;;;;;;;12.02;1.92;;;12.70;99.90;;;;;;4999167;28;35850;-79
2023/11/03 11:40:15;;;;;;;11.73;2.38;;;12.70;99.90;;;;;;5014866;28;37266;-79
2023/11/03 11:42:43;;;;;;;12.85;2.95;;;12.80;99.90;;;;;;5015883;28;38278;-78
2023/11/03 11:45:11;;;;;;;16.55;2.80;;;12.90;99.90;;;;;;5014221;28;37974;-79
2023/11/03 11:47:47;;;;;;;18.52;2.97;;;13.00;99.90;;;;;;5012452;28;37666;-79
2023/11/03 11:50:17;;;;;;;13.60;2.15;;;13.00;99.90;;;;;;4996130;28;37628;-79
2023/11/03 11:52:49;;;;;;;13.40;2.88;;;13.00;99.90;;;;;;5012828;28;37255;-79
2023/11/03 11:55:18;;;;;;;12.13;3.03;;;12.90;99.90;;;;;;5016367;28;37041;-79
2023/11/03 11:57:46;;;;;;;13.63;2.03;;;12.80;99.90;;;;;;5027815;28;37329;-79
2023/11/03 12:00:17;;;;;;;14.00;2.13;;;12.90;99.90;;;;;;5016482;28;38998;-79
2023/11/03 12:02:53;;;;;;;16.95;2.78;;;13.10;99.90;;;;;;5007941;28;37229;-79
2023/11/03 12:05:21;;;;;;;11.25;2.50;;;13.10;99.90;;;;;;5016936;28;37991;-77
2023/11/03 12:07:47;;;;;;;15.13;3.00;;;13.00;99.90;;;;;;5010411;28;36186;-78
2023/11/03 12:10:13;;;;;;;14.98;2.45;;;13.10;99.90;;;;;;4996032;28;37918;-77
2023/11/03 12:12:40;;;;;;;11.63;1.98;;;13.10;99.90;;;;;;4997829;28;37345;-77
2023/11/03 12:15:06;;;;;;;22.60;2.50;;;13.10;99.90;;;;;;4990461;28;36708;-77
2023/11/03 12:17:33;;;;;;;11.95;2.45;;;13.00;99.90;;;;;;5018728;28;37880;-79
2023/11/03 12:20:00;;;;;;;13.02;2.65;;;13.20;99.90;;;;;;5014861;28;38798;-80
2023/11/03 12:22:29;;;;;;;14.18;2.55;;;13.30;99.90;;;;;;5009605;28;38828;-80
2023/11/03 12:24:56;;;;;;;11.32;1.88;;;13.30;99.90;;;;;;5020939;28;37967;-81
2023/11/03 12:27:23;;;;;;;12.98;2.50;;;13.40;99.90;;;;;;5009021;28;38444;-79
2023/11/03 12:29:51;;;;;;;9.27;1.98;;;13.50;99.90;;;;;;5024628;28;40316;-79
2023/11/03 12:32:17;;;;;;;14.02;2.25;;;13.60;99.90;;;;;;5020697;28;38063;-79
2023/11/03 12:34:46;;;;;;;11.55;2.13;;;13.60;99.90;;;;;;4999975;28;36418;-79
2023/11/03 12:37:15;;;;;;;10.70;2.00;;;13.60;99.90;;;;;;5001132;28;37453;-80
2023/11/03 12:39:51;;;;;;;12.98;2.25;;;13.50;99.90;;;;;;5002589;28;38716;-78
2023/11/03 12:42:22;;;;;;;8.68;1.98;;;13.70;99.90;;;;;;5002863;28;37319;-78
2023/11/03 12:44:51;;;;;;;11.40;2.22;;;13.50;99.90;;;;;;5000953;28;37617;-77
2023/11/03 12:47:47;;;;;;;9.52;2.15;;;13.30;99.90;;;;;;4997797;28;36181;-78